sensor_id;sensor_type;location;lat;lon;timestamp;P1;durP1;ratioP1;P2;durP2;ratioP2
57891;SDS011;43708;48.828;9.166;2023-05-07T00:00:18;0.90;;;0.90;;
57891;SDS011;43708;48.828;9.166;2023-05-07T00:02:44;1.38;;;1.00;;
57891;SDS011;43708;48.828;9.166;2023-05-07T00:05:11;0.98;;;0.90;;
57891;SDS011;43708;48.828;9.166;2023-05-07T00:07:36;0.88;;;0.80;;
57891;SDS011;43708;48.828;9.166;2023-05-07T00:10:02;1.10;;;1.00;;
57891;SDS011;43708;48.828;9.166;2023-05-07T00:12:29;1.20;;;1.10;;
57891;SDS011;43708;48.828;9.166;2023-05-07T00:14:58;1.83;;;1.48;;
57891;SDS011;43708;48.828;9.166;2023-05-07T00:17:25;2.03;;;1.40;;
57891;SDS011;43708;48.828;9.166;2023-05-07T00:19:51;1.88;;;1.65;;
57891;SDS011;43708;48.828;9.166;2023-05-07T00:22:16;2.22;;;2.03;;
57891;SDS011;43708;48.828;9.166;2023-05-07T00:24:42;2.92;;;2.60;;
57891;SDS011;43708;48.828;9.166;2023-05-07T00:27:08;3.85;;;3.00;;
57891;SDS011;43708;48.828;9.166;2023-05-07T00:29:33;3.95;;;3.00;;
57891;SDS011;43708;48.828;9.166;2023-05-07T00:31:59;5.15;;;3.30;;
57891;SDS011;43708;48.828;9.166;2023-05-07T00:34:24;3.72;;;3.15;;
57891;SDS011;43708;48.828;9.166;2023-05-07T00:36:50;3.78;;;3.20;;
57891;SDS011;43708;48.828;9.166;2023-05-07T00:39:16;4.10;;;3.70;;
57891;SDS011;43708;48.828;9.166;2023-05-07T00:41:41;5.85;;;3.90;;
57891;SDS011;43708;48.828;9.166;2023-05-07T00:44:07;4.95;;;3.45;;
57891;SDS011;43708;48.828;9.166;2023-05-07T00:46:32;5.45;;;4.32;;
57891;SDS011;43708;48.828;9.166;2023-05-07T00:48:59;5.13;;;3.85;;
57891;SDS011;43708;48.828;9.166;2023-05-07T00:51:25;4.95;;;3.60;;
57891;SDS011;43708;48.828;9.166;2023-05-07T00:53:52;4.35;;;3.70;;
57891;SDS011;43708;48.828;9.166;2023-05-07T00:56:18;3.85;;;3.50;;
57891;SDS011;43708;48.828;9.166;2023-05-07T00:58:48;4.20;;;3.22;;
57891;SDS011;43708;48.828;9.166;2023-05-07T01:01:14;3.30;;;2.97;;
57891;SDS011;43708;48.828;9.166;2023-05-07T01:03:41;4.30;;;3.50;;
57891;SDS011;43708;48.828;9.166;2023-05-07T01:06:07;4.15;;;3.75;;
57891;SDS011;43708;48.828;9.166;2023-05-07T01:08:34;3.60;;;3.08;;
57891;SDS011;43708;48.828;9.166;2023-05-07T01:11:01;3.67;;;3.05;;
57891;SDS011;43708;48.828;9.166;2023-05-07T01:13:27;3.60;;;3.30;;
57891;SDS011;43708;48.828;9.166;2023-05-07T01:15:53;3.75;;;3.35;;
57891;SDS011;43708;48.828;9.166;2023-05-07T01:18:19;4.00;;;2.95;;
57891;SDS011;43708;48.828;9.166;2023-05-07T01:20:45;3.92;;;3.25;;
57891;SDS011;43708;48.828;9.166;2023-05-07T01:23:11;3.33;;;3.03;;
57891;SDS011;43708;48.828;9.166;2023-05-07T01:25:37;3.88;;;3.50;;
57891;SDS011;43708;48.828;9.166;2023-05-07T01:28:02;3.67;;;3.20;;
57891;SDS011;43708;48.828;9.166;2023-05-07T01:30:28;3.60;;;3.17;;
57891;SDS011;43708;48.828;9.166;2023-05-07T01:33:04;3.97;;;3.50;;
57891;SDS011;43708;48.828;9.166;2023-05-07T01:35:38;3.80;;;2.78;;
57891;SDS011;43708;48.828;9.166;2023-05-07T01:38:06;3.00;;;2.70;;
57891;SDS011;43708;48.828;9.166;2023-05-07T01:40:33;3.38;;;2.67;;
57891;SDS011;43708;48.828;9.166;2023-05-07T01:42:59;3.63;;;2.75;;
57891;SDS011;43708;48.828;9.166;2023-05-07T01:45:26;3.33;;;3.00;;
57891;SDS011;43708;48.828;9.166;2023-05-07T01:47:53;3.72;;;2.95;;
57891;SDS011;43708;48.828;9.166;2023-05-07T01:50:19;3.25;;;2.50;;
57891;SDS011;43708;48.828;9.166;2023-05-07T01:52:45;3.65;;;2.80;;
57891;SDS011;43708;48.828;9.166;2023-05-07T01:55:12;2.60;;;2.40;;
57891;SDS011;43708;48.828;9.166;2023-05-07T01:57:37;3.83;;;2.95;;
57891;SDS011;43708;48.828;9.166;2023-05-07T02:00:03;3.50;;;3.20;;
57891;SDS011;43708;48.828;9.166;2023-05-07T02:02:30;3.00;;;2.70;;
57891;SDS011;43708;48.828;9.166;2023-05-07T02:04:56;3.33;;;2.95;;
57891;SDS011;43708;48.828;9.166;2023-05-07T02:07:22;3.10;;;2.58;;
57891;SDS011;43708;48.828;9.166;2023-05-07T02:09:47;2.63;;;2.28;;
57891;SDS011;43708;48.828;9.166;2023-05-07T02:12:13;3.53;;;3.03;;
57891;SDS011;43708;48.828;9.166;2023-05-07T02:14:38;3.05;;;2.60;;
57891;SDS011;43708;48.828;9.166;2023-05-07T02:17:04;2.88;;;2.28;;
57891;SDS011;43708;48.828;9.166;2023-05-07T02:19:30;2.92;;;2.53;;
57891;SDS011;43708;48.828;9.166;2023-05-07T02:21:55;2.70;;;2.50;;
57891;SDS011;43708;48.828;9.166;2023-05-07T02:24:21;2.90;;;2.60;;
57891;SDS011;43708;48.828;9.166;2023-05-07T02:26:46;3.17;;;2.67;;
57891;SDS011;43708;48.828;9.166;2023-05-07T02:29:12;2.33;;;2.10;;
57891;SDS011;43708;48.828;9.166;2023-05-07T02:31:38;2.88;;;2.25;;
57891;SDS011;43708;48.828;9.166;2023-05-07T02:34:03;2.20;;;2.00;;
57891;SDS011;43708;48.828;9.166;2023-05-07T02:36:29;3.22;;;2.58;;
57891;SDS011;43708;48.828;9.166;2023-05-07T02:38:55;2.65;;;2.45;;
57891;SDS011;43708;48.828;9.166;2023-05-07T02:41:20;2.65;;;2.28;;
57891;SDS011;43708;48.828;9.166;2023-05-07T02:43:46;2.47;;;2.20;;
57891;SDS011;43708;48.828;9.166;2023-05-07T02:46:12;2.83;;;2.38;;
57891;SDS011;43708;48.828;9.166;2023-05-07T02:48:37;2.13;;;1.88;;
57891;SDS011;43708;48.828;9.166;2023-05-07T02:51:03;3.58;;;2.35;;
57891;SDS011;43708;48.828;9.166;2023-05-07T02:53:30;2.33;;;2.13;;
57891;SDS011;43708;48.828;9.166;2023-05-07T02:55:56;2.42;;;2.08;;
57891;SDS011;43708;48.828;9.166;2023-05-07T02:58:23;1.92;;;1.83;;
57891;SDS011;43708;48.828;9.166;2023-05-07T03:00:49;1.85;;;1.67;;
57891;SDS011;43708;48.828;9.166;2023-05-07T03:03:15;2.40;;;1.95;;
57891;SDS011;43708;48.828;9.166;2023-05-07T03:05:43;2.55;;;2.35;;
57891;SDS011;43708;48.828;9.166;2023-05-07T03:08:09;2.10;;;1.90;;
57891;SDS011;43708;48.828;9.166;2023-05-07T03:10:35;2.00;;;1.75;;
57891;SDS011;43708;48.828;9.166;2023-05-07T03:13:01;2.45;;;1.85;;
57891;SDS011;43708;48.828;9.166;2023-05-07T03:15:27;2.30;;;2.10;;
57891;SDS011;43708;48.828;9.166;2023-05-07T03:17:52;2.28;;;1.90;;
57891;SDS011;43708;48.828;9.166;2023-05-07T03:20:18;2.17;;;1.98;;
57891;SDS011;43708;48.828;9.166;2023-05-07T03:22:43;2.00;;;1.75;;
57891;SDS011;43708;48.828;9.166;2023-05-07T03:25:09;2.13;;;1.90;;
57891;SDS011;43708;48.828;9.166;2023-05-07T03:27:35;2.30;;;1.90;;
57891;SDS011;43708;48.828;9.166;2023-05-07T03:30:01;2.00;;;1.83;;
57891;SDS011;43708;48.828;9.166;2023-05-07T03:32:27;2.65;;;1.98;;
57891;SDS011;43708;48.828;9.166;2023-05-07T03:34:52;2.10;;;1.90;;
57891;SDS011;43708;48.828;9.166;2023-05-07T03:37:18;2.00;;;1.80;;
57891;SDS011;43708;48.828;9.166;2023-05-07T03:39:44;2.00;;;1.83;;
57891;SDS011;43708;48.828;9.166;2023-05-07T03:42:09;1.70;;;1.60;;
57891;SDS011;43708;48.828;9.166;2023-05-07T03:44:35;1.83;;;1.73;;
57891;SDS011;43708;48.828;9.166;2023-05-07T03:47:01;2.30;;;1.63;;
57891;SDS011;43708;48.828;9.166;2023-05-07T03:49:27;2.63;;;1.92;;
57891;SDS011;43708;48.828;9.166;2023-05-07T03:51:53;2.00;;;1.80;;
57891;SDS011;43708;48.828;9.166;2023-05-07T03:54:18;2.58;;;2.05;;
57891;SDS011;43708;48.828;9.166;2023-05-07T03:56:44;2.30;;;1.85;;
57891;SDS011;43708;48.828;9.166;2023-05-07T03:59:10;1.88;;;1.67;;
57891;SDS011;43708;48.828;9.166;2023-05-07T04:01:35;1.90;;;1.58;;
57891;SDS011;43708;48.828;9.166;2023-05-07T04:04:01;2.05;;;1.58;;
57891;SDS011;43708;48.828;9.166;2023-05-07T04:06:28;2.45;;;1.50;;
57891;SDS011;43708;48.828;9.166;2023-05-07T04:08:53;1.73;;;1.40;;
57891;SDS011;43708;48.828;9.166;2023-05-07T04:11:19;2.03;;;1.70;;
57891;SDS011;43708;48.828;9.166;2023-05-07T04:13:45;2.05;;;1.70;;
57891;SDS011;43708;48.828;9.166;2023-05-07T04:16:10;1.60;;;1.50;;
57891;SDS011;43708;48.828;9.166;2023-05-07T04:18:36;1.60;;;1.50;;
57891;SDS011;43708;48.828;9.166;2023-05-07T04:21:02;1.70;;;1.60;;
57891;SDS011;43708;48.828;9.166;2023-05-07T04:23:27;2.00;;;1.70;;
57891;SDS011;43708;48.828;9.166;2023-05-07T04:25:53;1.77;;;1.42;;
57891;SDS011;43708;48.828;9.166;2023-05-07T04:28:19;1.80;;;1.50;;
57891;SDS011;43708;48.828;9.166;2023-05-07T04:30:45;1.98;;;1.80;;
57891;SDS011;43708;48.828;9.166;2023-05-07T04:33:11;1.60;;;1.50;;
57891;SDS011;43708;48.828;9.166;2023-05-07T04:35:36;1.35;;;1.25;;
57891;SDS011;43708;48.828;9.166;2023-05-07T04:38:02;1.60;;;1.50;;
57891;SDS011;43708;48.828;9.166;2023-05-07T04:40:28;1.60;;;1.50;;
57891;SDS011;43708;48.828;9.166;2023-05-07T04:42:54;1.55;;;1.45;;
57891;SDS011;43708;48.828;9.166;2023-05-07T04:45:19;1.55;;;1.20;;
57891;SDS011;43708;48.828;9.166;2023-05-07T04:47:45;1.55;;;1.45;;
57891;SDS011;43708;48.828;9.166;2023-05-07T04:50:10;1.42;;;1.33;;
57891;SDS011;43708;48.828;9.166;2023-05-07T04:52:36;1.67;;;1.35;;
57891;SDS011;43708;48.828;9.166;2023-05-07T04:55:02;1.50;;;1.40;;
57891;SDS011;43708;48.828;9.166;2023-05-07T04:57:28;1.40;;;1.30;;
57891;SDS011;43708;48.828;9.166;2023-05-07T04:59:53;1.35;;;1.25;;
57891;SDS011;43708;48.828;9.166;2023-05-07T05:02:19;1.63;;;1.52;;
57891;SDS011;43708;48.828;9.166;2023-05-07T05:04:45;1.35;;;1.25;;
57891;SDS011;43708;48.828;9.166;2023-05-07T05:07:10;1.52;;;1.42;;
57891;SDS011;43708;48.828;9.166;2023-05-07T05:09:36;1.52;;;1.40;;
57891;SDS011;43708;48.828;9.166;2023-05-07T05:12:02;1.52;;;1.40;;
57891;SDS011;43708;48.828;9.166;2023-05-07T05:14:27;1.20;;;1.10;;
57891;SDS011;43708;48.828;9.166;2023-05-07T05:16:53;1.55;;;1.40;;
57891;SDS011;43708;48.828;9.166;2023-05-07T05:19:18;1.27;;;1.17;;
57891;SDS011;43708;48.828;9.166;2023-05-07T05:21:44;1.50;;;1.38;;
57891;SDS011;43708;48.828;9.166;2023-05-07T05:24:10;1.50;;;1.40;;
57891;SDS011;43708;48.828;9.166;2023-05-07T05:26:35;1.63;;;1.38;;
57891;SDS011;43708;48.828;9.166;2023-05-07T05:29:01;1.13;;;1.02;;
57891;SDS011;43708;48.828;9.166;2023-05-07T05:31:26;1.83;;;1.50;;
57891;SDS011;43708;48.828;9.166;2023-05-07T05:33:52;1.50;;;1.40;;
57891;SDS011;43708;48.828;9.166;2023-05-07T05:36:17;1.30;;;1.20;;
57891;SDS011;43708;48.828;9.166;2023-05-07T05:38:43;1.27;;;1.17;;
57891;SDS011;43708;48.828;9.166;2023-05-07T05:41:09;1.40;;;1.30;;
57891;SDS011;43708;48.828;9.166;2023-05-07T05:43:35;1.58;;;1.30;;
57891;SDS011;43708;48.828;9.166;2023-05-07T05:46:01;1.30;;;1.20;;
57891;SDS011;43708;48.828;9.166;2023-05-07T05:48:26;2.00;;;1.50;;
57891;SDS011;43708;48.828;9.166;2023-05-07T05:50:53;1.13;;;1.02;;
57891;SDS011;43708;48.828;9.166;2023-05-07T05:53:19;1.35;;;1.20;;
57891;SDS011;43708;48.828;9.166;2023-05-07T05:55:45;1.63;;;0.95;;
57891;SDS011;43708;48.828;9.166;2023-05-07T05:58:11;1.48;;;1.10;;
57891;SDS011;43708;48.828;9.166;2023-05-07T06:00:36;1.25;;;1.15;;
57891;SDS011;43708;48.828;9.166;2023-05-07T06:03:02;1.30;;;1.20;;
57891;SDS011;43708;48.828;9.166;2023-05-07T06:05:28;1.30;;;1.20;;
57891;SDS011;43708;48.828;9.166;2023-05-07T06:07:53;0.90;;;0.90;;
57891;SDS011;43708;48.828;9.166;2023-05-07T06:10:19;0.93;;;0.70;;
57891;SDS011;43708;48.828;9.166;2023-05-07T06:12:45;0.98;;;0.85;;
57891;SDS011;43708;48.828;9.166;2023-05-07T06:15:10;1.25;;;1.08;;
57891;SDS011;43708;48.828;9.166;2023-05-07T06:17:36;0.80;;;0.80;;
57891;SDS011;43708;48.828;9.166;2023-05-07T06:20:01;1.67;;;0.90;;
57891;SDS011;43708;48.828;9.166;2023-05-07T06:22:27;10.73;;;1.73;;
57891;SDS011;43708;48.828;9.166;2023-05-07T06:24:53;1.15;;;1.05;;
57891;SDS011;43708;48.828;9.166;2023-05-07T06:27:18;2.95;;;1.10;;
57891;SDS011;43708;48.828;9.166;2023-05-07T06:29:44;1.10;;;1.00;;
57891;SDS011;43708;48.828;9.166;2023-05-07T06:32:10;1.10;;;0.90;;
57891;SDS011;43708;48.828;9.166;2023-05-07T06:34:37;0.90;;;0.90;;
57891;SDS011;43708;48.828;9.166;2023-05-07T06:37:03;1.10;;;1.00;;
57891;SDS011;43708;48.828;9.166;2023-05-07T06:39:30;1.20;;;1.10;;
57891;SDS011;43708;48.828;9.166;2023-05-07T06:41:56;1.05;;;1.00;;
57891;SDS011;43708;48.828;9.166;2023-05-07T06:44:22;2.35;;;0.90;;
57891;SDS011;43708;48.828;9.166;2023-05-07T06:46:48;1.70;;;1.05;;
57891;SDS011;43708;48.828;9.166;2023-05-07T06:49:14;1.25;;;1.15;;
57891;SDS011;43708;48.828;9.166;2023-05-07T06:51:39;1.15;;;1.05;;
57891;SDS011;43708;48.828;9.166;2023-05-07T06:54:05;1.33;;;1.23;;
57891;SDS011;43708;48.828;9.166;2023-05-07T06:56:31;1.10;;;1.00;;
57891;SDS011;43708;48.828;9.166;2023-05-07T06:58:57;0.85;;;0.85;;
57891;SDS011;43708;48.828;9.166;2023-05-07T07:01:24;0.82;;;0.82;;
57891;SDS011;43708;48.828;9.166;2023-05-07T07:03:49;1.77;;;1.08;;
57891;SDS011;43708;48.828;9.166;2023-05-07T07:06:16;0.95;;;0.95;;
57891;SDS011;43708;48.828;9.166;2023-05-07T07:08:41;1.08;;;1.02;;
57891;SDS011;43708;48.828;9.166;2023-05-07T07:11:07;1.20;;;1.10;;
57891;SDS011;43708;48.828;9.166;2023-05-07T07:13:33;1.58;;;1.20;;
57891;SDS011;43708;48.828;9.166;2023-05-07T07:15:59;1.60;;;1.08;;
57891;SDS011;43708;48.828;9.166;2023-05-07T07:18:25;1.88;;;1.00;;
57891;SDS011;43708;48.828;9.166;2023-05-07T07:20:50;1.92;;;1.10;;
57891;SDS011;43708;48.828;9.166;2023-05-07T07:23:16;1.30;;;1.17;;
57891;SDS011;43708;48.828;9.166;2023-05-07T07:25:42;1.90;;;1.50;;
57891;SDS011;43708;48.828;9.166;2023-05-07T07:28:07;5.97;;;3.08;;
57891;SDS011;43708;48.828;9.166;2023-05-07T07:30:33;1.80;;;1.70;;
57891;SDS011;43708;48.828;9.166;2023-05-07T07:32:59;8.48;;;5.15;;
57891;SDS011;43708;48.828;9.166;2023-05-07T07:35:31;7.90;;;4.10;;
57891;SDS011;43708;48.828;9.166;2023-05-07T07:37:57;9.60;;;6.32;;
57891;SDS011;43708;48.828;9.166;2023-05-07T07:40:23;6.00;;;4.03;;
57891;SDS011;43708;48.828;9.166;2023-05-07T07:42:49;8.52;;;5.85;;
57891;SDS011;43708;48.828;9.166;2023-05-07T07:45:15;7.28;;;5.35;;
57891;SDS011;43708;48.828;9.166;2023-05-07T07:47:41;4.22;;;3.10;;
57891;SDS011;43708;48.828;9.166;2023-05-07T07:50:07;2.72;;;2.38;;
57891;SDS011;43708;48.828;9.166;2023-05-07T07:52:33;3.35;;;2.35;;
57891;SDS011;43708;48.828;9.166;2023-05-07T07:54:59;2.20;;;1.80;;
57891;SDS011;43708;48.828;9.166;2023-05-07T07:57:25;2.05;;;1.60;;
57891;SDS011;43708;48.828;9.166;2023-05-07T07:59:50;1.58;;;1.25;;
57891;SDS011;43708;48.828;9.166;2023-05-07T08:02:16;1.65;;;1.20;;
57891;SDS011;43708;48.828;9.166;2023-05-07T08:04:42;1.42;;;1.33;;
57891;SDS011;43708;48.828;9.166;2023-05-07T08:07:09;1.40;;;1.30;;
57891;SDS011;43708;48.828;9.166;2023-05-07T08:09:35;1.40;;;1.30;;
57891;SDS011;43708;48.828;9.166;2023-05-07T08:12:00;0.93;;;0.82;;
57891;SDS011;43708;48.828;9.166;2023-05-07T08:14:26;1.20;;;1.10;;
57891;SDS011;43708;48.828;9.166;2023-05-07T08:16:53;3.63;;;1.40;;
57891;SDS011;43708;48.828;9.166;2023-05-07T08:19:19;1.33;;;1.23;;
57891;SDS011;43708;48.828;9.166;2023-05-07T08:21:45;1.70;;;1.17;;
57891;SDS011;43708;48.828;9.166;2023-05-07T08:24:12;1.50;;;1.40;;
57891;SDS011;43708;48.828;9.166;2023-05-07T08:26:38;1.00;;;1.00;;
57891;SDS011;43708;48.828;9.166;2023-05-07T08:29:05;1.38;;;1.20;;
57891;SDS011;43708;48.828;9.166;2023-05-07T08:31:30;1.50;;;1.40;;
57891;SDS011;43708;48.828;9.166;2023-05-07T08:33:57;2.25;;;1.70;;
57891;SDS011;43708;48.828;9.166;2023-05-07T08:36:23;1.77;;;1.67;;
57891;SDS011;43708;48.828;9.166;2023-05-07T08:38:49;2.20;;;2.00;;
57891;SDS011;43708;48.828;9.166;2023-05-07T08:41:15;2.35;;;1.63;;
57891;SDS011;43708;48.828;9.166;2023-05-07T08:43:41;2.30;;;1.75;;
57891;SDS011;43708;48.828;9.166;2023-05-07T08:46:09;2.17;;;1.98;;
57891;SDS011;43708;48.828;9.166;2023-05-07T08:48:36;2.00;;;1.80;;
57891;SDS011;43708;48.828;9.166;2023-05-07T08:51:02;2.63;;;1.30;;
57891;SDS011;43708;48.828;9.166;2023-05-07T08:53:27;2.17;;;1.70;;
57891;SDS011;43708;48.828;9.166;2023-05-07T08:55:53;5.25;;;2.72;;
57891;SDS011;43708;48.828;9.166;2023-05-07T08:58:19;2.60;;;2.25;;
57891;SDS011;43708;48.828;9.166;2023-05-07T09:00:45;2.35;;;1.63;;
57891;SDS011;43708;48.828;9.166;2023-05-07T09:03:12;2.97;;;1.90;;
57891;SDS011;43708;48.828;9.166;2023-05-07T09:05:38;1.52;;;1.35;;
57891;SDS011;43708;48.828;9.166;2023-05-07T09:08:05;1.58;;;1.40;;
57891;SDS011;43708;48.828;9.166;2023-05-07T09:10:34;2.03;;;1.77;;
57891;SDS011;43708;48.828;9.166;2023-05-07T09:13:00;1.90;;;1.58;;
57891;SDS011;43708;48.828;9.166;2023-05-07T09:15:27;2.28;;;1.60;;
57891;SDS011;43708;48.828;9.166;2023-05-07T09:17:53;2.78;;;1.73;;
57891;SDS011;43708;48.828;9.166;2023-05-07T09:20:19;1.75;;;1.30;;
57891;SDS011;43708;48.828;9.166;2023-05-07T09:22:45;1.67;;;1.50;;
57891;SDS011;43708;48.828;9.166;2023-05-07T09:25:10;2.30;;;1.83;;
57891;SDS011;43708;48.828;9.166;2023-05-07T09:27:36;3.65;;;2.10;;
57891;SDS011;43708;48.828;9.166;2023-05-07T09:30:05;2.17;;;1.10;;
57891;SDS011;43708;48.828;9.166;2023-05-07T09:32:37;1.60;;;1.50;;
57891;SDS011;43708;48.828;9.166;2023-05-07T09:35:04;2.25;;;1.83;;
57891;SDS011;43708;48.828;9.166;2023-05-07T09:37:30;1.73;;;1.63;;
57891;SDS011;43708;48.828;9.166;2023-05-07T09:39:56;1.85;;;1.70;;
57891;SDS011;43708;48.828;9.166;2023-05-07T09:42:26;1.67;;;1.58;;
57891;SDS011;43708;48.828;9.166;2023-05-07T09:44:52;1.63;;;1.30;;
57891;SDS011;43708;48.828;9.166;2023-05-07T09:47:18;1.20;;;1.10;;
57891;SDS011;43708;48.828;9.166;2023-05-07T09:49:46;1.30;;;1.20;;
57891;SDS011;43708;48.828;9.166;2023-05-07T09:52:13;1.88;;;1.25;;
57891;SDS011;43708;48.828;9.166;2023-05-07T09:54:39;2.08;;;1.70;;
57891;SDS011;43708;48.828;9.166;2023-05-07T09:57:08;1.20;;;1.10;;
57891;SDS011;43708;48.828;9.166;2023-05-07T09:59:36;0.80;;;0.80;;
57891;SDS011;43708;48.828;9.166;2023-05-07T10:02:03;1.10;;;1.10;;
57891;SDS011;43708;48.828;9.166;2023-05-07T10:04:30;1.30;;;1.20;;
57891;SDS011;43708;48.828;9.166;2023-05-07T10:06:57;1.45;;;1.35;;
57891;SDS011;43708;48.828;9.166;2023-05-07T10:09:23;1.65;;;1.35;;
57891;SDS011;43708;48.828;9.166;2023-05-07T10:11:51;0.95;;;0.93;;
57891;SDS011;43708;48.828;9.166;2023-05-07T10:14:18;1.10;;;1.00;;
57891;SDS011;43708;48.828;9.166;2023-05-07T10:16:45;1.73;;;1.02;;
57891;SDS011;43708;48.828;9.166;2023-05-07T10:19:13;1.48;;;0.98;;
57891;SDS011;43708;48.828;9.166;2023-05-07T10:21:42;1.23;;;1.13;;
57891;SDS011;43708;48.828;9.166;2023-05-07T10:24:25;1.08;;;0.93;;
57891;SDS011;43708;48.828;9.166;2023-05-07T10:26:52;1.50;;;1.10;;
57891;SDS011;43708;48.828;9.166;2023-05-07T10:34:44;0.98;;;0.90;;
57891;SDS011;43708;48.828;9.166;2023-05-07T10:37:13;1.65;;;1.10;;
57891;SDS011;43708;48.828;9.166;2023-05-07T10:39:40;2.20;;;1.02;;
57891;SDS011;43708;48.828;9.166;2023-05-07T10:42:12;1.42;;;0.93;;
57891;SDS011;43708;48.828;9.166;2023-05-07T10:44:39;2.00;;;1.00;;
57891;SDS011;43708;48.828;9.166;2023-05-07T10:49:33;1.17;;;0.88;;
57891;SDS011;43708;48.828;9.166;2023-05-07T10:54:41;2.88;;;1.70;;
57891;SDS011;43708;48.828;9.166;2023-05-07T10:59:52;2.10;;;1.27;;
57891;SDS011;43708;48.828;9.166;2023-05-07T11:02:18;2.95;;;1.50;;
57891;SDS011;43708;48.828;9.166;2023-05-07T11:04:45;1.73;;;1.58;;
57891;SDS011;43708;48.828;9.166;2023-05-07T11:07:30;1.80;;;1.40;;
57891;SDS011;43708;48.828;9.166;2023-05-07T11:09:57;1.20;;;1.05;;
57891;SDS011;43708;48.828;9.166;2023-05-07T11:17:29;2.47;;;1.70;;
57891;SDS011;43708;48.828;9.166;2023-05-07T11:19:57;1.30;;;1.20;;
57891;SDS011;43708;48.828;9.166;2023-05-07T11:25:01;1.77;;;1.15;;
57891;SDS011;43708;48.828;9.166;2023-05-07T11:27:28;1.50;;;1.40;;
57891;SDS011;43708;48.828;9.166;2023-05-07T11:29:54;1.50;;;1.13;;
57891;SDS011;43708;48.828;9.166;2023-05-07T11:32:23;1.33;;;1.23;;
57891;SDS011;43708;48.828;9.166;2023-05-07T11:34:53;3.00;;;1.20;;
57891;SDS011;43708;48.828;9.166;2023-05-07T11:37:20;1.05;;;1.00;;
57891;SDS011;43708;48.828;9.166;2023-05-07T11:39:47;1.10;;;0.93;;
57891;SDS011;43708;48.828;9.166;2023-05-07T11:42:28;1.75;;;0.90;;
57891;SDS011;43708;48.828;9.166;2023-05-07T11:44:58;1.20;;;1.08;;
57891;SDS011;43708;48.828;9.166;2023-05-07T11:47:24;1.40;;;1.00;;
57891;SDS011;43708;48.828;9.166;2023-05-07T11:49:53;1.17;;;1.00;;
57891;SDS011;43708;48.828;9.166;2023-05-07T11:52:20;1.38;;;1.10;;
57891;SDS011;43708;48.828;9.166;2023-05-07T11:54:53;1.10;;;1.00;;
57891;SDS011;43708;48.828;9.166;2023-05-07T11:57:20;0.80;;;0.80;;
57891;SDS011;43708;48.828;9.166;2023-05-07T11:59:46;1.20;;;0.90;;
57891;SDS011;43708;48.828;9.166;2023-05-07T12:02:16;1.00;;;0.90;;
57891;SDS011;43708;48.828;9.166;2023-05-07T12:04:43;0.90;;;0.80;;
57891;SDS011;43708;48.828;9.166;2023-05-07T12:07:12;0.95;;;0.88;;
57891;SDS011;43708;48.828;9.166;2023-05-07T12:09:39;1.10;;;1.00;;
57891;SDS011;43708;48.828;9.166;2023-05-07T12:12:05;1.20;;;1.10;;
57891;SDS011;43708;48.828;9.166;2023-05-07T12:14:31;0.95;;;0.93;;
57891;SDS011;43708;48.828;9.166;2023-05-07T12:16:57;1.10;;;1.00;;
57891;SDS011;43708;48.828;9.166;2023-05-07T12:19:27;1.05;;;0.98;;
57891;SDS011;43708;48.828;9.166;2023-05-07T12:21:54;1.17;;;1.08;;
57891;SDS011;43708;48.828;9.166;2023-05-07T12:24:21;1.08;;;0.93;;
57891;SDS011;43708;48.828;9.166;2023-05-07T12:26:47;1.35;;;1.25;;
57891;SDS011;43708;48.828;9.166;2023-05-07T12:29:13;0.90;;;0.90;;
57891;SDS011;43708;48.828;9.166;2023-05-07T12:31:42;0.70;;;0.70;;
57891;SDS011;43708;48.828;9.166;2023-05-07T12:34:08;1.10;;;1.00;;
57891;SDS011;43708;48.828;9.166;2023-05-07T12:36:39;1.30;;;1.20;;
57891;SDS011;43708;48.828;9.166;2023-05-07T12:39:08;1.67;;;1.08;;
57891;SDS011;43708;48.828;9.166;2023-05-07T12:44:23;1.90;;;0.95;;
57891;SDS011;43708;48.828;9.166;2023-05-07T12:46:58;1.08;;;1.00;;
57891;SDS011;43708;48.828;9.166;2023-05-07T12:49:26;1.00;;;0.90;;
57891;SDS011;43708;48.828;9.166;2023-05-07T12:51:53;1.52;;;1.10;;
57891;SDS011;43708;48.828;9.166;2023-05-07T12:54:31;0.93;;;0.85;;
57891;SDS011;43708;48.828;9.166;2023-05-07T12:57:04;0.88;;;0.88;;
57891;SDS011;43708;48.828;9.166;2023-05-07T12:59:35;0.80;;;0.80;;
57891;SDS011;43708;48.828;9.166;2023-05-07T13:02:02;0.90;;;0.90;;
57891;SDS011;43708;48.828;9.166;2023-05-07T13:04:27;1.00;;;0.90;;
57891;SDS011;43708;48.828;9.166;2023-05-07T13:06:53;1.15;;;0.80;;
57891;SDS011;43708;48.828;9.166;2023-05-07T13:09:19;0.70;;;0.70;;
57891;SDS011;43708;48.828;9.166;2023-05-07T13:11:45;1.33;;;0.90;;
57891;SDS011;43708;48.828;9.166;2023-05-07T13:14:11;0.88;;;0.88;;
57891;SDS011;43708;48.828;9.166;2023-05-07T13:16:37;1.15;;;0.80;;
57891;SDS011;43708;48.828;9.166;2023-05-07T13:19:02;0.93;;;0.88;;
57891;SDS011;43708;48.828;9.166;2023-05-07T13:21:29;0.75;;;0.75;;
57891;SDS011;43708;48.828;9.166;2023-05-07T13:23:56;1.00;;;0.90;;
57891;SDS011;43708;48.828;9.166;2023-05-07T13:26:23;0.70;;;0.55;;
57891;SDS011;43708;48.828;9.166;2023-05-07T13:28:48;0.70;;;0.70;;
57891;SDS011;43708;48.828;9.166;2023-05-07T13:31:14;1.05;;;0.95;;
57891;SDS011;43708;48.828;9.166;2023-05-07T13:33:39;0.80;;;0.77;;
57891;SDS011;43708;48.828;9.166;2023-05-07T13:36:05;1.27;;;0.73;;
57891;SDS011;43708;48.828;9.166;2023-05-07T13:38:31;0.90;;;0.90;;
57891;SDS011;43708;48.828;9.166;2023-05-07T13:40:57;0.63;;;0.63;;
57891;SDS011;43708;48.828;9.166;2023-05-07T13:43:23;0.80;;;0.80;;
57891;SDS011;43708;48.828;9.166;2023-05-07T13:45:49;0.80;;;0.80;;
57891;SDS011;43708;48.828;9.166;2023-05-07T13:48:15;1.67;;;0.90;;
57891;SDS011;43708;48.828;9.166;2023-05-07T13:50:40;0.90;;;0.80;;
57891;SDS011;43708;48.828;9.166;2023-05-07T13:53:07;1.00;;;0.82;;
57891;SDS011;43708;48.828;9.166;2023-05-07T13:55:33;0.80;;;0.80;;
57891;SDS011;43708;48.828;9.166;2023-05-07T13:57:59;1.23;;;0.90;;
57891;SDS011;43708;48.828;9.166;2023-05-07T14:00:26;1.00;;;0.82;;
57891;SDS011;43708;48.828;9.166;2023-05-07T14:02:58;1.10;;;1.00;;
57891;SDS011;43708;48.828;9.166;2023-05-07T14:05:24;0.93;;;0.82;;
57891;SDS011;43708;48.828;9.166;2023-05-07T14:07:50;0.93;;;0.80;;
57891;SDS011;43708;48.828;9.166;2023-05-07T14:10:17;1.00;;;0.90;;
57891;SDS011;43708;48.828;9.166;2023-05-07T14:12:43;0.77;;;0.77;;
57891;SDS011;43708;48.828;9.166;2023-05-07T14:15:10;1.00;;;0.90;;
57891;SDS011;43708;48.828;9.166;2023-05-07T14:17:36;0.80;;;0.80;;
57891;SDS011;43708;48.828;9.166;2023-05-07T14:20:02;0.80;;;0.80;;
57891;SDS011;43708;48.828;9.166;2023-05-07T14:22:28;1.00;;;0.68;;
57891;SDS011;43708;48.828;9.166;2023-05-07T14:24:54;1.83;;;0.80;;
57891;SDS011;43708;48.828;9.166;2023-05-07T14:27:21;1.75;;;1.10;;
57891;SDS011;43708;48.828;9.166;2023-05-07T14:29:48;1.08;;;0.93;;
57891;SDS011;43708;48.828;9.166;2023-05-07T14:32:16;5.43;;;1.60;;
57891;SDS011;43708;48.828;9.166;2023-05-07T14:34:43;4.45;;;1.55;;
57891;SDS011;43708;48.828;9.166;2023-05-07T14:37:09;4.60;;;1.52;;
57891;SDS011;43708;48.828;9.166;2023-05-07T14:39:35;8.40;;;1.65;;
57891;SDS011;43708;48.828;9.166;2023-05-07T14:42:01;3.58;;;1.60;;
57891;SDS011;43708;48.828;9.166;2023-05-07T14:44:26;4.80;;;1.90;;
57891;SDS011;43708;48.828;9.166;2023-05-07T14:46:52;2.65;;;1.70;;
57891;SDS011;43708;48.828;9.166;2023-05-07T14:49:18;1.80;;;1.20;;
57891;SDS011;43708;48.828;9.166;2023-05-07T14:51:44;3.42;;;1.40;;
57891;SDS011;43708;48.828;9.166;2023-05-07T14:54:10;3.30;;;1.50;;
57891;SDS011;43708;48.828;9.166;2023-05-07T14:56:36;2.30;;;1.55;;
57891;SDS011;43708;48.828;9.166;2023-05-07T14:59:02;2.17;;;1.30;;
57891;SDS011;43708;48.828;9.166;2023-05-07T15:01:28;3.65;;;1.38;;
57891;SDS011;43708;48.828;9.166;2023-05-07T15:03:54;2.95;;;1.25;;
57891;SDS011;43708;48.828;9.166;2023-05-07T15:06:20;2.53;;;1.35;;